Time;durP1;ratioP1;P1;durP2;ratioP2;P2;SDS_P1;SDS_P2;PMS_P1;PMS_P2;Temp;Humidity;BMP_temperature;BMP_pressure;BME280_temperature;BME280_humidity;BME280_pressure;Samples;Min_cycle;Max_cycle;Signal;HPM_P1;HPM_P2
2022/06/15 00:01:43;;;;;;;;;9.00;9.00;;;;;21.97;38.83;101095.41;5052172;28;47375;-61
2022/06/15 00:04:08;;;;;;;;;9.00;8.00;;;;;21.94;38.62;101097.41;5055665;28;45351;-61
2022/06/15 00:06:39;;;;;;;;;9.50;8.00;;;;;21.89;38.56;101098.53;5054999;28;45300;-60
2022/06/15 00:09:04;;;;;;;;;9.00;8.00;;;;;21.84;38.66;101091.72;5052986;28;45356;-60
2022/06/15 00:11:34;;;;;;;;;8.00;8.00;;;;;21.79;38.71;101085.78;5057103;28;49460;-60
2022/06/15 00:14:07;;;;;;;;;9.75;8.00;;;;;21.81;38.72;101097.25;5056276;28;45423;-61
2022/06/15 00:16:33;;;;;;;;;7.25;6.25;;;;;21.77;38.63;101083.16;5048559;28;45436;-60
2022/06/15 00:18:58;;;;;;;;;9.00;9.00;;;;;21.72;38.94;101091.47;5053732;28;45865;-60
2022/06/15 00:21:23;;;;;;;;;8.25;8.25;;;;;21.73;38.60;101090.50;5056086;28;45537;-61
2022/06/15 00:23:50;;;;;;;;;11.25;8.00;;;;;21.69;38.51;101085.44;5056208;28;45868;-61
2022/06/15 00:26:16;;;;;;;;;7.25;7.25;;;;;21.67;38.63;101088.19;5056081;28;45543;-60
2022/06/15 00:28:41;;;;;;;;;6.75;6.75;;;;;21.67;38.44;101093.53;5061561;28;45369;-60
2022/06/15 00:31:07;;;;;;;;;9.50;9.50;;;;;21.64;38.41;101088.34;5055498;28;45348;-60
2022/06/15 00:33:32;;;;;;;;;10.25;9.00;;;;;21.58;38.68;101083.34;5057519;28;45521;-59
2022/06/15 00:36:01;;;;;;;;;10.25;9.50;;;;;21.55;39.26;101088.84;5054384;28;45307;-60
2022/06/15 00:38:32;;;;;;;;;10.00;9.00;;;;;21.48;39.31;101087.44;5059581;28;45455;-61
2022/06/15 00:40:59;;;;;;;;;10.50;9.00;;;;;21.45;38.85;101087.63;5055673;28;46306;-60
2022/06/15 00:43:38;;;;;;;;;8.75;8.25;;;;;21.45;39.47;101090.28;5056645;28;45403;-60
2022/06/15 00:46:13;;;;;;;;;7.75;7.25;;;;;21.37;39.47;101083.53;5058991;28;45536;-60
2022/06/15 00:48:40;;;;;;;;;9.25;8.50;;;;;21.39;39.33;101094.13;5052842;28;45465;-60
2022/06/15 00:51:06;;;;;;;;;13.75;11.00;;;;;21.35;39.22;101103.28;5060165;28;47356;-59
2022/06/15 00:53:31;;;;;;;;;9.75;7.75;;;;;21.30;39.29;101087.47;5055187;28;45437;-60
2022/06/15 00:55:57;;;;;;;;;11.50;9.00;;;;;21.27;39.43;101083.16;5060021;28;45505;-60
2022/06/15 00:58:22;;;;;;;;;9.50;9.50;;;;;21.28;39.96;101094.72;5057684;28;45303;-60
2022/06/15 01:00:51;;;;;;;;;8.25;8.25;;;;;21.25;39.35;101093.06;5061435;28;46570;-60
2022/06/15 01:03:17;;;;;;;;;6.75;6.75;;;;;21.24;39.51;101093.16;5056471;28;45431;-60
2022/06/15 01:05:48;;;;;;;;;11.00;7.00;;;;;21.19;39.65;101092.53;5060318;28;45451;-60
2022/06/15 01:08:44;;;;;;;;;8.00;7.75;;;;;21.20;39.38;101094.28;5053997;28;45546;-61
2022/06/15 01:11:22;;;;;;;;;7.50;6.25;;;;;21.14;39.49;101092.78;5052857;28;45400;-61
2022/06/15 01:14:17;;;;;;;;;9.50;8.75;;;;;21.12;40.04;101089.34;5058279;28;45352;-61
2022/06/15 01:17:07;;;;;;;;;8.00;8.00;;;;;21.09;39.60;101092.16;5059379;28;45426;-61
2022/06/15 01:20:07;;;;;;;;;7.75;7.00;;;;;21.06;40.09;101103.03;5061280;28;45301;-61
2022/06/15 01:22:51;;;;;;;;;11.00;8.75;;;;;21.02;40.27;101099.66;5056645;28;46645;-61
2022/06/15 01:25:45;;;;;;;;;10.00;8.75;;;;;20.99;39.86;101099.78;5055034;28;45466;-61
2022/06/15 01:28:32;;;;;;;;;9.25;8.75;;;;;20.97;40.18;101095.47;5059689;28;45261;-60
2022/06/15 01:31:16;;;;;;;;;8.00;8.00;;;;;20.92;40.21;101093.06;5059435;28;45343;-61
2022/06/15 01:34:15;;;;;;;;;8.00;8.00;;;;;20.92;40.49;101095.72;5055956;28;45529;-60
2022/06/15 01:36:44;;;;;;;;;8.50;8.25;;;;;20.88;40.49;101094.13;5055999;28;45382;-62
2022/06/15 01:39:20;;;;;;;;;9.00;9.00;;;;;20.83;40.17;101088.19;5061477;28;45278;-61
2022/06/15 01:41:56;;;;;;;;;8.25;8.00;;;;;20.82;40.21;101094.47;5056789;28;46305;-61
2022/06/15 01:44:33;;;;;;;;;10.25;9.00;;;;;20.74;40.75;101082.38;5057989;28;46249;-61
2022/06/15 01:47:03;;;;;;;;;8.25;8.25;;;;;20.72;40.79;101084.25;5057480;28;45542;-61
2022/06/15 01:49:40;;;;;;;;;8.25;8.25;;;;;20.70;40.78;101079.91;5057524;28;45910;-61
2022/06/15 01:52:09;;;;;;;;;11.25;9.25;;;;;20.63;40.81;101082.03;5058599;28;45222;-60
2022/06/15 01:54:39;;;;;;;;;8.00;7.25;;;;;20.66;40.33;101075.69;5056567;28;46281;-61
2022/06/15 01:57:07;;;;;;;;;9.75;9.75;;;;;20.64;40.55;101078.44;5058500;28;45459;-61
2022/06/15 01:59:38;;;;;;;;;8.00;7.25;;;;;20.61;41.05;101078.56;5062678;28;45241;-61
2022/06/15 02:02:21;;;;;;;;;10.00;9.50;;;;;20.56;40.56;101064.59;5060800;28;45502;-61
2022/06/15 02:05:01;;;;;;;;;7.50;7.00;;;;;20.55;41.25;101062.88;5050614;28;45346;-61
2022/06/15 02:07:41;;;;;;;;;7.25;6.25;;;;;20.53;41.39;101062.09;5061078;28;45340;-61
2022/06/15 02:10:26;;;;;;;;;8.00;6.75;;;;;20.48;41.39;101061.44;5062467;28;45508;-62
2022/06/15 02:13:00;;;;;;;;;9.50;9.50;;;;;20.44;41.53;101050.09;5062059;28;45435;-61
2022/06/15 02:15:29;;;;;;;;;6.25;6.25;;;;;20.40;41.33;101052.06;5062395;28;45268;-62
2022/06/15 02:18:00;;;;;;;;;9.00;8.00;;;;;20.41;41.52;101053.75;5053782;28;45449;-62
2022/06/15 02:20:30;;;;;;;;;7.00;7.00;;;;;20.36;41.71;101050.44;5049709;28;45540;-62
2022/06/15 02:23:00;;;;;;;;;7.75;7.75;;;;;20.34;41.78;101048.81;5062337;28;45533;-62
2022/06/15 02:25:30;;;;;;;;;13.75;9.75;;;;;20.27;41.66;101040.25;5060605;28;45423;-63
2022/06/15 02:27:56;;;;;;;;;5.25;4.75;;;;;20.29;41.96;101044.56;5061261;28;45434;-64
2022/06/15 02:30:24;;;;;;;;;7.25;7.25;;;;;20.28;42.11;101055.34;5061934;28;45427;-62
2022/06/15 02:32:51;;;;;;;;;8.00;6.50;;;;;20.25;42.14;101047.47;5061980;28;45344;-62
2022/06/15 02:35:18;;;;;;;;;11.00;7.75;;;;;20.25;42.24;101055.47;5064328;28;47292;-62
2022/06/15 02:37:45;;;;;;;;;8.25;8.25;;;;;20.22;42.37;101053.81;5080358;28;45703;-63
2022/06/15 02:40:18;;;;;;;;;6.25;6.25;;;;;20.19;42.52;101043.31;5082120;27;45288;-63
2022/06/15 02:42:47;;;;;;;;;7.50;7.50;;;;;20.16;42.38;101055.94;5082176;27;45434;-62
2022/06/15 02:45:22;;;;;;;;;11.00;10.00;;;;;20.10;42.54;101052.63;5072533;27;45323;-63
2022/06/15 02:47:48;;;;;;;;;8.00;6.00;;;;;20.12;43.01;101055.22;5060379;28;45318;-63
2022/06/15 02:50:18;;;;;;;;;7.75;7.00;;;;;20.06;42.56;101047.50;5061996;28;45420;-63
2022/06/15 02:52:50;;;;;;;;;6.50;6.50;;;;;20.07;43.05;101055.44;5061663;28;45576;-62
2022/06/15 02:55:17;;;;;;;;;6.50;6.50;;;;;20.03;43.20;101043.19;5077390;28;47383;-63
2022/06/15 02:57:52;;;;;;;;;7.00;7.00;;;;;20.01;43.33;101044.22;5060323;28;45391;-62
2022/06/15 03:00:21;;;;;;;;;10.00;8.50;;;;;20.03;43.12;101045.00;5060563;28;45463;-62
2022/06/15 03:02:47;;;;;;;;;5.75;5.75;;;;;20.01;43.37;101047.72;5060014;28;45501;-62
2022/06/15 03:05:12;;;;;;;;;6.50;6.50;;;;;19.98;43.41;101053.22;5059944;28;46872;-62
2022/06/15 03:07:38;;;;;;;;;7.00;6.00;;;;;20.00;43.42;101053.16;5077256;28;45499;-62
2022/06/15 03:10:04;;;;;;;;;7.75;7.75;;;;;19.97;43.97;101057.72;5062021;28;45643;-62
2022/06/15 03:12:30;;;;;;;;;8.25;5.75;;;;;19.95;44.09;101056.06;5074638;28;45497;-62
2022/06/15 03:14:55;;;;;;;;;5.75;5.75;;;;;19.94;43.60;101059.66;5071301;27;46425;-63
2022/06/15 03:17:21;;;;;;;;;9.00;9.00;;;;;19.89;44.34;101046.53;5063200;27;45326;-63
2022/06/15 03:19:46;;;;;;;;;7.50;7.50;;;;;19.88;43.69;101055.47;5075468;28;45331;-63
2022/06/15 03:22:12;;;;;;;;;8.50;8.25;;;;;19.85;44.37;101054.75;5066879;28;45508;-64
2022/06/15 03:24:37;;;;;;;;;7.25;7.25;;;;;19.83;44.13;101049.50;5081895;27;46105;-64
2022/06/15 03:27:02;;;;;;;;;6.50;6.50;;;;;19.77;44.64;101053.31;5081600;27;45310;-63
2022/06/15 03:29:28;;;;;;;;;7.75;7.75;;;;;19.80;44.57;101063.81;5082002;28;45295;-64
2022/06/15 03:31:54;;;;;;;;;7.75;7.25;;;;;19.83;44.40;101072.66;5081316;27;45199;-63
2022/06/15 03:34:19;;;;;;;;;8.00;6.00;;;;;19.80;44.64;101063.81;5080139;28;45877;-63
2022/06/15 03:36:44;;;;;;;;;7.00;7.00;;;;;19.81;44.21;101076.22;5080229;27;45267;-63
2022/06/15 03:39:10;;;;;;;;;7.50;7.25;;;;;19.77;44.95;101066.63;5081658;27;45221;-62
2022/06/15 03:41:35;;;;;;;;;8.00;8.00;;;;;19.80;45.03;101068.28;5080210;28;45772;-63
2022/06/15 03:44:00;;;;;;;;;8.75;8.25;;;;;19.75;44.73;101062.31;5081100;28;46139;-63
2022/06/15 03:46:26;;;;;;;;;8.75;7.50;;;;;19.73;44.74;101062.38;5079659;28;45328;-63
2022/06/15 03:48:51;;;;;;;;;7.50;7.50;;;;;19.76;44.76;101064.03;5081424;28;45518;-63
2022/06/15 03:51:17;;;;;;;;;10.00;7.00;;;;;19.79;44.87;101074.56;5081202;27;46318;-63
2022/06/15 03:53:45;;;;;;;;;7.50;6.50;;;;;19.80;44.99;101073.63;5079878;28;48080;-63
2022/06/15 03:56:10;;;;;;;;;5.75;5.25;;;;;19.76;45.14;101059.56;5081300;28;45337;-63
2022/06/15 03:58:35;;;;;;;;;6.00;6.00;;;;;19.75;44.98;101055.16;5081116;27;45341;-63
2022/06/15 04:01:02;;;;;;;;;13.25;10.50;;;;;19.83;44.99;101068.16;5080877;27;45339;-63
2022/06/15 04:03:27;;;;;;;;;9.00;8.00;;;;;19.88;45.39;101063.47;5081039;27;46636;-64
2022/06/15 04:05:55;;;;;;;;;5.25;5.25;;;;;19.91;44.94;101059.78;5079784;28;45508;-64
2022/06/15 04:08:37;;;;;;;;;8.00;6.25;;;;;19.93;45.58;101057.94;5081384;27;45222;-63
2022/06/15 04:11:07;;;;;;;;;7.25;7.25;;;;;19.92;45.40;101059.75;5068320;27;45323;-63
2022/06/15 04:13:33;;;;;;;;;8.00;8.00;;;;;19.90;45.10;101066.06;5059117;28;46856;-63
2022/06/15 04:15:59;;;;;;;;;8.00;8.00;;;;;19.87;45.10;101059.06;5058807;28;45507;-63
2022/06/15 04:18:24;;;;;;;;;8.00;8.00;;;;;19.89;45.22;101062.53;5060765;28;45259;-63
2022/06/15 04:20:50;;;;;;;;;9.00;9.00;;;;;19.91;45.36;101066.00;5069864;28;45284;-63
2022/06/15 04:23:18;;;;;;;;;10.25;8.75;;;;;19.91;45.52;101062.47;5078995;28;46699;-63
2022/06/15 04:25:51;;;;;;;;;10.00;9.00;;;;;19.87;45.56;101053.75;5080827;27;45268;-63
2022/06/15 04:28:18;;;;;;;;;9.75;9.75;;;;;19.92;45.51;101065.06;5081135;27;45465;-63
2022/06/15 04:30:43;;;;;;;;;10.75;8.00;;;;;19.91;45.71;101060.69;5080254;27;45459;-63
2022/06/15 04:33:09;;;;;;;;;10.00;8.25;;;;;19.91;45.52;101065.13;5080612;28;45315;-62
2022/06/15 04:35:35;;;;;;;;;8.75;8.75;;;;;19.93;45.59;101065.94;5080545;27;45227;-63
2022/06/15 04:38:01;;;;;;;;;8.00;7.25;;;;;19.91;45.74;101066.00;5080720;27;45319;-63
2022/06/15 04:40:26;;;;;;;;;10.25;9.00;;;;;19.89;45.66;101067.88;5079242;28;45397;-63
2022/06/15 04:42:52;;;;;;;;;11.75;10.75;;;;;19.95;45.65;101066.72;5080426;27;45323;-63
2022/06/15 04:45:17;;;;;;;;;9.25;9.25;;;;;19.98;45.96;101061.22;5080340;28;45240;-64
2022/06/15 04:47:43;;;;;;;;;12.00;11.25;;;;;20.02;46.01;101067.28;5079896;28;45442;-63
2022/06/15 04:50:13;;;;;;;;;12.00;9.50;;;;;20.05;45.96;101069.78;5080385;28;45443;-63
2022/06/15 04:52:44;;;;;;;;;11.75;9.00;;;;;20.09;45.98;101066.91;5079074;28;48469;-64
2022/06/15 04:55:12;;;;;;;;;10.75;9.75;;;;;20.13;46.08;101071.13;5080128;27;45362;-64
2022/06/15 04:57:38;;;;;;;;;9.00;9.00;;;;;20.13;46.03;101070.28;5080289;28;45397;-63
2022/06/15 05:00:12;;;;;;;;;7.25;7.25;;;;;20.17;45.83;101068.34;5080171;28;45223;-63
2022/06/15 05:02:37;;;;;;;;;9.25;9.25;;;;;20.22;46.24;101076.97;5079932;27;45372;-63
2022/06/15 05:05:03;;;;;;;;;10.00;8.75;;;;;20.19;45.92;101080.66;5079973;28;45227;-63
2022/06/15 05:07:29;;;;;;;;;7.00;7.00;;;;;20.20;45.88;101084.19;5079233;28;45352;-63
2022/06/15 05:09:54;;;;;;;;;9.75;9.75;;;;;20.22;46.27;101090.31;5077249;27;45218;-64
2022/06/15 05:12:19;;;;;;;;;8.00;7.25;;;;;20.17;46.11;101069.19;5058607;28;47536;-64
2022/06/15 05:14:48;;;;;;;;;8.00;8.00;;;;;20.23;45.92;101087.56;5061229;28;45228;-63
2022/06/15 05:17:19;;;;;;;;;9.00;8.00;;;;;20.22;45.86;101084.97;5063724;28;45371;-64
2022/06/15 05:19:45;;;;;;;;;10.00;10.00;;;;;20.23;45.92;101087.56;5070843;28;45284;-64
2022/06/15 05:22:11;;;;;;;;;9.75;8.00;;;;;20.23;45.68;101082.22;5058139;28;47074;-64
2022/06/15 05:24:36;;;;;;;;;8.50;7.00;;;;;20.21;45.84;101081.44;5059732;28;45335;-64
2022/06/15 05:27:02;;;;;;;;;8.25;8.25;;;;;20.27;45.84;101090.94;5059957;28;45298;-64
2022/06/15 05:29:28;;;;;;;;;8.00;8.00;;;;;20.26;45.64;101086.56;5059617;28;45246;-63
2022/06/15 05:31:53;;;;;;;;;9.25;9.25;;;;;20.22;45.99;101085.84;5059105;28;45383;-64
2022/06/15 05:34:19;;;;;;;;;9.25;8.00;;;;;20.25;45.81;101079.47;5063084;28;45448;-64
2022/06/15 05:36:44;;;;;;;;;8.25;8.25;;;;;20.28;45.71;101080.19;5078708;28;45418;-64
2022/06/15 05:39:10;;;;;;;;;11.00;8.00;;;;;20.36;45.90;101092.31;5078225;28;45393;-64
2022/06/15 05:41:35;;;;;;;;;11.25;9.00;;;;;20.38;46.02;101096.63;5080005;27;45311;-64
2022/06/15 05:44:02;;;;;;;;;13.25;12.25;;;;;20.42;45.95;101095.50;5078075;28;45345;-64
2022/06/15 05:46:30;;;;;;;;;8.00;8.00;;;;;20.42;45.92;101086.66;5078266;28;45481;-64
2022/06/15 05:49:00;;;;;;;;;9.00;9.00;;;;;20.46;45.75;101093.56;5078059;28;45525;-63
2022/06/15 05:51:27;;;;;;;;;9.00;8.00;;;;;20.48;45.80;101091.69;5079482;27;46724;-63
2022/06/15 05:53:53;;;;;;;;;8.00;8.00;;;;;20.48;45.80;101086.34;5078152;28;45261;-63
2022/06/15 05:56:20;;;;;;;;;11.00;9.50;;;;;20.51;45.85;101082.66;5079631;27;45503;-64
2022/06/15 05:58:46;;;;;;;;;7.75;7.00;;;;;20.51;46.19;101085.34;5079275;27;45267;-63
2022/06/15 06:01:20;;;;;;;;;8.75;8.75;;;;;20.48;46.05;101078.34;5081376;27;45330;-64
2022/06/15 06:03:45;;;;;;;;;9.25;8.50;;;;;20.54;46.09;101093.16;5082980;28;45248;-64
2022/06/15 06:06:11;;;;;;;;;10.00;10.00;;;;;20.56;45.74;101085.97;5081611;28;45178;-64
2022/06/15 06:08:37;;;;;;;;;10.00;7.75;;;;;20.56;45.73;101085.97;5081501;28;46281;-64
2022/06/15 06:11:02;;;;;;;;;12.00;9.25;;;;;20.57;45.91;101095.69;5068903;28;46910;-64
2022/06/15 06:13:29;;;;;;;;;9.50;9.00;;;;;20.57;46.24;101101.03;5062437;28;45225;-65
2022/06/15 06:15:56;;;;;;;;;21.00;17.75;;;;;20.58;46.82;101097.44;5060872;28;45390;-63
2022/06/15 06:18:22;;;;;;;;;27.25;26.50;;;;;20.60;46.04;101095.53;5060550;28;45513;-64
2022/06/15 06:20:48;;;;;;;;;7.75;6.75;;;;;20.66;46.26;101089.03;5070112;28;47902;-64
2022/06/15 06:23:14;;;;;;;;;22.00;20.50;;;;;20.67;46.03;101090.78;5080723;28;45360;-64
2022/06/15 06:25:41;;;;;;;;;10.00;9.25;;;;;20.73;45.96;101085.16;5082713;27;45236;-64
2022/06/15 06:28:22;;;;;;;;;10.25;9.50;;;;;20.82;45.44;101083.78;5082607;27;45506;-64
2022/06/15 06:30:47;;;;;;;;;8.25;8.25;;;;;20.85;45.63;101078.28;5080702;28;47423;-64
2022/06/15 06:33:13;;;;;;;;;9.00;9.00;;;;;20.90;45.60;101078.91;5082453;27;45375;-63
2022/06/15 06:35:38;;;;;;;;;11.25;8.75;;;;;20.94;45.74;101073.34;5082641;27;45326;-64
2022/06/15 06:38:04;;;;;;;;;9.00;9.00;;;;;20.97;45.55;101071.44;5080979;28;45648;-64
2022/06/15 06:40:29;;;;;;;;;10.75;9.75;;;;;21.03;45.41;101079.13;5082322;27;45402;-64
2022/06/15 06:42:54;;;;;;;;;14.00;9.25;;;;;21.09;45.10;101085.03;5082058;27;45528;-64
2022/06/15 06:45:20;;;;;;;;;10.00;9.50;;;;;21.15;45.45;101086.50;5080868;28;45397;-64
2022/06/15 06:47:46;;;;;;;;;9.75;8.00;;;;;21.19;45.32;101085.38;5082268;27;45538;-64
2022/06/15 06:50:11;;;;;;;;;7.50;7.50;;;;;21.25;45.31;101087.72;5081942;28;46021;-64
2022/06/15 06:52:36;;;;;;;;;10.00;8.75;;;;;21.30;44.83;101092.81;5082124;27;45271;-64
2022/06/15 06:55:02;;;;;;;;;10.50;9.25;;;;;21.30;44.89;101081.28;5082173;27;45267;-64
2022/06/15 06:57:27;;;;;;;;;8.25;8.25;;;;;21.37;44.51;101086.22;5082206;28;45157;-64
2022/06/15 06:59:52;;;;;;;;;10.00;8.75;;;;;21.39;44.68;101083.44;5081979;27;45505;-64
2022/06/15 07:02:18;;;;;;;;;12.75;10.00;;;;;21.48;44.29;101092.78;5081770;27;45390;-64
2022/06/15 07:04:43;;;;;;;;;9.75;9.75;;;;;21.56;44.60;101091.44;5082211;27;45764;-64
2022/06/15 07:07:08;;;;;;;;;8.00;8.00;;;;;21.63;44.18;101094.63;5082154;27;45323;-65
2022/06/15 07:09:34;;;;;;;;;9.75;9.25;;;;;21.68;44.62;101089.03;5079933;28;51794;-64
2022/06/15 07:12:00;;;;;;;;;9.50;9.00;;;;;21.72;44.21;101090.59;5060063;28;45340;-65
2022/06/15 07:14:25;;;;;;;;;8.00;8.00;;;;;21.79;43.84;101086.63;5061835;28;45418;-64
2022/06/15 07:16:50;;;;;;;;;15.00;10.00;;;;;21.88;43.56;101103.97;5061235;28;45366;-65
2022/06/15 07:19:16;;;;;;;;;9.00;7.25;;;;;21.88;43.39;101086.09;5057319;28;45251;-64
2022/06/15 07:21:41;;;;;;;;;10.25;9.00;;;;;22.00;43.75;101105.09;5080409;28;45248;-64
2022/06/15 07:24:08;;;;;;;;;7.25;5.50;;;;;22.06;42.94;101096.72;5080034;28;45256;-65
2022/06/15 07:26:42;;;;;;;;;7.00;7.00;;;;;22.13;43.04;101083.88;5080573;28;45647;-65
2022/06/15 07:29:11;;;;;;;;;8.00;8.00;;;;;22.13;43.22;101076.69;5081518;28;45408;-65
2022/06/15 07:31:43;;;;;;;;;11.25;9.00;;;;;22.27;42.69;101089.28;5081204;27;45317;-65
2022/06/15 07:34:09;;;;;;;;;7.25;7.25;;;;;22.39;42.92;101098.44;5081399;27;45252;-65
2022/06/15 07:36:36;;;;;;;;;9.25;8.50;;;;;22.44;42.28;101092.81;5081682;28;45310;-64
2022/06/15 07:39:04;;;;;;;;;9.75;9.00;;;;;22.55;42.44;101098.38;5081050;27;45325;-65
2022/06/15 07:41:29;;;;;;;;;11.00;9.25;;;;;22.74;42.18;101092.78;5081518;27;45322;-64
2022/06/15 07:43:55;;;;;;;;;10.50;8.00;;;;;22.95;41.76;101096.00;5081107;28;45622;-65
2022/06/15 07:46:22;;;;;;;;;10.50;9.00;;;;;23.19;40.75;101090.13;5081059;27;45524;-65
2022/06/15 07:51:36;;;;;;;;;7.00;7.00;;;;;23.58;40.19;101099.31;5081239;28;45338;-64
2022/06/15 07:54:05;;;;;;;;;9.00;7.50;;;;;23.69;40.01;101098.63;5081363;27;45221;-64
2022/06/15 07:56:32;;;;;;;;;12.00;8.50;;;;;23.78;40.43;101103.41;5079785;28;45474;-64
2022/06/15 07:58:58;;;;;;;;;8.25;8.00;;;;;23.84;39.82;101088.72;5079560;28;45349;-64
2022/06/15 08:01:23;;;;;;;;;8.25;7.25;;;;;23.97;39.44;101105.78;5080688;27;45362;-64
2022/06/15 08:03:49;;;;;;;;;7.50;7.50;;;;;24.03;39.38;101099.16;5081137;27;45359;-64
2022/06/15 08:06:16;;;;;;;;;9.00;8.00;;;;;24.14;38.86;101101.16;5080821;27;45177;-63
2022/06/15 08:08:42;;;;;;;;;8.25;6.25;;;;;24.19;38.44;101101.72;5079470;28;46854;-63
2022/06/15 08:11:07;;;;;;;;;10.25;9.00;;;;;24.20;38.73;101094.50;5067528;27;45461;-63
2022/06/15 08:13:33;;;;;;;;;7.00;5.75;;;;;24.21;38.43;101089.03;5060736;28;45284;-63
2022/06/15 08:15:58;;;;;;;;;6.75;6.25;;;;;24.24;38.09;101078.09;5060296;28;45248;-62
2022/06/15 08:18:30;;;;;;;;;5.75;5.75;;;;;24.34;38.25;101094.47;5059059;28;47773;-63
2022/06/15 08:21:03;;;;;;;;;10.00;7.75;;;;;24.39;37.80;101092.31;5069982;28;45226;-63
2022/06/15 08:23:33;;;;;;;;;6.00;6.00;;;;;24.34;37.59;101075.66;5080158;28;45386;-63
2022/06/15 08:26:02;;;;;;;;;7.50;7.50;;;;;24.47;37.55;101089.97;5079219;28;46030;-63
2022/06/15 08:28:40;;;;;;;;;5.50;4.25;;;;;24.49;37.29;101084.50;5080716;27;45354;-63
2022/06/15 08:31:06;;;;;;;;;8.00;8.00;;;;;24.59;37.42;101090.09;5080331;27;45338;-63
2022/06/15 08:33:32;;;;;;;;;10.25;8.75;;;;;24.61;37.03;101086.34;5080697;27;45255;-63
2022/06/15 08:35:57;;;;;;;;;9.75;9.00;;;;;24.71;37.42;101091.97;5079302;28;45239;-63
2022/06/15 08:38:25;;;;;;;;;7.75;6.75;;;;;24.77;36.64;101099.63;5080377;28;45609;-63
2022/06/15 08:40:55;;;;;;;;;9.25;8.50;;;;;24.87;36.70;101101.66;5080350;28;45314;-64
2022/06/15 08:43:42;;;;;;;;;10.00;9.00;;;;;24.93;36.61;101096.75;5080503;27;45311;-64
2022/06/15 08:46:46;;;;;;;;;9.75;7.75;;;;;25.03;36.70;101090.72;5080238;28;45418;-63
2022/06/15 08:49:48;;;;;;;;;12.75;10.00;;;;;25.12;36.63;101100.84;5056459;27;45295;-63
2022/06/15 08:52:17;;;;;;;;;6.75;6.75;;;;;25.22;36.29;101096.53;5067330;28;45489;-57
2022/06/15 08:54:58;;;;;;;;;11.00;8.25;;;;;25.29;35.81;101096.94;5053069;28;45433;-56
2022/06/15 08:57:38;;;;;;;;;8.50;8.50;;;;;25.37;36.31;101093.75;5060874;28;45474;-56
2022/06/15 09:00:10;;;;;;;;;13.75;12.25;;;;;25.39;36.12;101081.06;5059836;27;45572;-56
2022/06/15 09:03:12;;;;;;;;;8.00;8.00;;;;;25.50;36.42;101088.34;5057495;28;45516;-57
2022/06/15 09:06:03;;;;;;;;;9.25;7.50;;;;;25.61;36.49;101085.75;5056238;28;45430;-56
2022/06/15 09:09:22;;;;;;;;;8.00;8.00;;;;;25.72;35.73;101087.66;5058261;28;45389;-57
2022/06/15 09:15:24;;;;;;;;;7.75;7.75;;;;;25.95;36.09;101094.91;5059183;28;45341;-55
2022/06/15 09:17:54;;;;;;;;;9.50;8.50;;;;;26.01;35.45;101082.84;5053478;28;45531;-56
2022/06/15 09:20:28;;;;;;;;;12.00;11.75;;;;;26.17;35.46;101100.56;5058437;28;45562;-56
2022/06/15 09:23:01;;;;;;;;;10.50;10.50;;;;;26.26;34.97;101099.88;5058660;28;45503;-54
2022/06/15 09:25:35;;;;;;;;;12.25;12.00;;;;;26.35;35.40;101098.31;5058939;28;45436;-53
2022/06/15 09:28:11;;;;;;;;;12.00;11.75;;;;;26.44;34.56;101094.94;5057815;28;45244;-57
2022/06/15 09:30:41;;;;;;;;;11.00;9.50;;;;;26.52;35.02;101095.19;5057658;28;45618;-56
2022/06/15 09:33:28;;;;;;;;;8.50;7.50;;;;;26.65;35.29;101102.34;5058213;28;47107;-56
2022/06/15 09:36:02;;;;;;;;;9.00;8.75;;;;;26.74;34.61;101096.28;5060762;28;45289;-55
2022/06/15 09:38:34;;;;;;;;;8.25;8.00;;;;;26.81;34.72;101091.28;5059476;28;45347;-57
2022/06/15 09:41:07;;;;;;;;;9.50;8.50;;;;;26.91;34.52;101097.66;5063889;28;45454;-57
2022/06/15 09:43:57;;;;;;;;;10.00;8.00;;;;;27.05;34.66;101096.59;5063624;28;46164;-56
2022/06/15 09:46:26;;;;;;;;;8.00;8.00;;;;;27.16;34.21;101087.66;5057120;28;45399;-56
2022/06/15 09:49:31;;;;;;;;;7.00;7.00;;;;;27.27;33.97;101082.28;5059484;28;45342;-53
2022/06/15 09:52:34;;;;;;;;;10.00;9.00;;;;;27.38;34.20;101084.09;5060017;28;45756;-54
2022/06/15 09:55:07;;;;;;;;;8.25;7.00;;;;;27.47;33.71;101078.00;5059810;28;45618;-57
2022/06/15 09:57:33;;;;;;;;;6.25;6.25;;;;;27.61;34.89;101073.31;5059476;28;45301;-55
2022/06/15 10:00:02;;;;;;;;;9.75;9.75;;;;;27.73;33.46;101077.72;5056777;28;45317;-55
2022/06/15 10:02:32;;;;;;;;;10.75;8.50;;;;;27.83;33.28;101083.22;5051944;28;45545;-56
2022/06/15 10:05:00;;;;;;;;;8.00;7.25;;;;;27.92;33.27;101081.59;5064181;28;46229;-55
2022/06/15 10:07:28;;;;;;;;;9.25;8.50;;;;;28.04;33.33;101077.94;5077955;27;45333;-57
2022/06/15 10:10:26;;;;;;;;;7.25;7.25;;;;;28.13;33.42;101070.91;5061244;28;45340;-55
2022/06/15 10:12:59;;;;;;;;;7.25;7.25;;;;;28.27;33.23;101078.69;5057113;28;45430;-56
2022/06/15 10:15:31;;;;;;;;;8.75;8.25;;;;;28.39;32.80;101076.81;5063089;28;46045;-54
2022/06/15 10:18:02;;;;;;;;;14.50;9.50;;;;;28.50;32.88;101076.75;5062063;28;45320;-56
2022/06/15 10:20:35;;;;;;;;;11.00;8.00;;;;;28.67;33.21;101085.28;5061238;28;45330;-55
2022/06/15 10:23:05;;;;;;;;;7.00;7.00;;;;;28.81;32.63;101084.94;5059737;28;45565;-56
2022/06/15 10:25:36;;;;;;;;;12.00;9.50;;;;;28.94;32.27;101084.72;5062415;28;46467;-55
2022/06/15 10:28:15;;;;;;;;;11.25;9.00;;;;;29.11;32.20;101091.38;5060471;28;45465;-54
2022/06/15 10:30:58;;;;;;;;;12.50;11.25;;;;;29.27;31.46;101087.31;5060755;28;45415;-55
2022/06/15 10:33:26;;;;;;;;;6.50;6.50;;;;;29.40;31.57;101097.97;5048891;28;45388;-56
2022/06/15 10:35:56;;;;;;;;;14.50;14.50;;;;;29.57;31.64;101093.75;5064155;28;45396;-55
2022/06/15 10:38:23;;;;;;;;;11.00;10.00;;;;;29.86;31.24;101095.66;5063038;28;45469;-55
2022/06/15 10:44:01;;;;;;;;;10.50;8.25;;;;;30.57;30.04;101095.47;4998094;28;45883;-56
2022/06/15 10:46:26;;;;;;;;;9.50;9.25;;;;;31.42;30.78;101090.16;5047639;28;46451;-56
2022/06/15 10:48:57;;;;;;;;;10.25;9.75;;;;;34.50;28.80;101095.63;5062203;28;45363;-57
2022/06/15 10:51:38;;;;;;;;;10.50;7.75;;;;;39.32;26.02;101082.22;5061486;28;45386;-57
2022/06/15 10:54:34;;;;;;;;;24.00;20.75;;;;;43.79;22.15;101101.72;5059491;28;45542;-57
2022/06/15 11:03:09;;;;;;;;;19.50;18.00;;;;;52.58;13.68;101100.72;5062836;28;45342;-56
2022/06/15 11:05:35;;;;;;;;;45.00;35.00;;;;;54.44;13.33;101103.63;5061552;28;45192;-57
2022/06/15 11:08:11;;;;;;;;;10.25;9.25;;;;;56.36;10.82;101097.28;5061071;28;45479;-58
2022/06/15 11:10:43;;;;;;;;;14.50;12.75;;;;;58.97;9.61;101091.00;5059505;28;45394;-57
2022/06/15 11:13:27;;;;;;;;;12.50;12.25;;;;;61.43;8.18;101091.72;5061357;28;45426;-58
2022/06/15 11:18:43;;;;;;;;;14.25;14.25;;;;;65.38;6.56;101099.34;5059878;28;45780;-57
2022/06/15 11:21:13;;;;;;;;;17.00;17.00;;;;;66.83;5.12;101091.97;5060464;28;45398;-55
2022/06/15 11:23:54;;;;;;;;;18.75;15.75;;;;;67.59;5.36;101077.91;5059777;28;45473;-55
2022/06/15 11:29:36;;;;;;;;;11.00;9.25;;;;;68.65;4.38;101082.34;5060614;28;45848;-54
2022/06/15 11:32:28;;;;;;;;;7.00;7.00;;;;;68.84;2.73;101069.56;5060786;28;45261;-54
2022/06/15 11:34:58;;;;;;;;;6.00;6.00;;;;;69.22;2.84;101067.75;5062033;28;45168;-55
2022/06/15 11:38:03;;;;;;;;;7.00;6.50;;;;;69.76;2.68;101069.41;5059659;28;45458;-55
2022/06/15 11:40:55;;;;;;;;;6.00;5.25;;;;;67.18;3.20;101053.25;5051232;28;46846;-55
2022/06/15 11:43:41;;;;;;;;;6.75;6.75;;;;;61.87;4.66;101026.41;5052514;28;45399;-55
2022/06/15 11:46:26;;;;;;;;;7.75;7.00;;;;;57.85;6.44;101015.66;5059453;28;45465;-56
2022/06/15 11:49:01;;;;;;;;;8.00;6.00;;;;;54.76;7.57;101022.31;5059340;28;45410;-56
2022/06/15 11:51:47;;;;;;;;;7.00;7.00;;;;;51.80;7.84;101022.16;5060818;28;45473;-55
2022/06/15 11:54:22;;;;;;;;;7.25;5.75;;;;;49.30;9.29;101021.47;5061056;28;45272;-55
2022/06/15 11:57:03;;;;;;;;;8.00;7.25;;;;;47.66;10.60;101017.38;5060831;28;45267;-55
2022/06/15 12:00:10;;;;;;;;;9.00;9.00;;;;;46.24;11.05;101033.63;5060273;28;45228;-55
2022/06/15 12:03:02;;;;;;;;;7.00;7.00;;;;;45.00;11.98;101030.47;5053335;28;46435;-54